createdAt,value
2023-04-23T00:00:49.363Z,63.02
2023-04-23T00:05:52.740Z,61.78
2023-04-23T00:10:56.756Z,60.63
2023-04-23T00:15:59.162Z,59.92
2023-04-23T00:21:01.347Z,59.67
2023-04-23T00:26:05.295Z,58.80
2023-04-23T00:31:07.730Z,59.31
2023-04-23T00:36:10.008Z,59.65
2023-04-23T00:41:14.503Z,59.21
2023-04-23T00:46:17.905Z,61.02
2023-04-23T00:51:21.244Z,63.67
2023-04-23T00:56:25.411Z,67.25
2023-04-23T01:01:27.639Z,70.08
2023-04-23T01:06:30.711Z,76.17
2023-04-23T01:11:34.540Z,78.76
2023-04-23T01:16:36.521Z,78.85
2023-04-23T01:21:40.453Z,80.24
2023-04-23T01:26:44.266Z,81.96
2023-04-23T01:31:47.236Z,85.44
2023-04-23T01:36:50.045Z,88.20
2023-04-23T01:41:54.220Z,90.15
2023-04-23T01:46:56.349Z,92.20
2023-04-23T01:51:58.424Z,93.43
2023-04-23T01:57:01.927Z,94.35
2023-04-23T02:02:03.804Z,93.38
2023-04-23T02:07:05.781Z,93.46
2023-04-23T02:12:09.167Z,93.51
2023-04-23T02:17:11.147Z,94.23
2023-04-23T02:22:13.351Z,94.23
2023-04-23T02:27:16.793Z,94.90
2023-04-23T02:32:18.567Z,95.25
2023-04-23T02:37:20.780Z,96.43
2023-04-23T02:42:24.559Z,96.78
2023-04-23T02:47:26.735Z,97.96
2023-04-23T02:52:28.934Z,98.54
2023-04-23T02:57:32.791Z,98.80
2023-04-23T03:02:35.142Z,98.69
2023-04-23T03:07:37.495Z,98.63
2023-04-23T03:12:40.552Z,98.99
2023-04-23T03:17:42.729Z,99.49
2023-04-23T03:22:44.852Z,100.00
2023-04-23T03:27:47.892Z,100.00
2023-04-23T03:32:50.625Z,100.00
2023-04-23T03:37:53.136Z,100.00
2023-04-23T03:42:56.684Z,100.00
2023-04-23T03:47:58.701Z,100.00
2023-04-23T03:53:01.205Z,100.00
2023-04-23T03:58:04.247Z,100.00
2023-04-23T04:03:06.467Z,100.00
2023-04-23T04:08:08.592Z,100.00
2023-04-23T04:13:12.110Z,100.00
2023-04-23T04:18:14.254Z,100.00
2023-04-23T04:23:16.488Z,100.00
2023-04-23T04:28:19.995Z,100.00
2023-04-23T04:33:22.149Z,100.00
2023-04-23T04:38:24.284Z,100.00
2023-04-23T04:43:27.787Z,100.00
2023-04-23T04:48:29.900Z,100.00
2023-04-23T04:53:31.954Z,100.00
2023-04-23T04:58:35.499Z,100.00
2023-04-23T05:03:37.891Z,100.00
2023-04-23T05:08:40.175Z,100.00
2023-04-23T05:13:44.323Z,100.00
2023-04-23T05:18:46.394Z,100.00
2023-04-23T05:23:48.743Z,100.00
2023-04-23T05:28:52.074Z,100.00
2023-04-23T05:33:53.937Z,100.00
2023-04-23T05:38:55.576Z,100.00
2023-04-23T05:43:59.187Z,100.00
2023-04-23T05:49:01.590Z,100.00
2023-04-23T05:54:03.752Z,100.00
2023-04-23T05:59:07.218Z,100.00
2023-04-23T06:04:09.098Z,100.00
2023-04-23T06:09:11.162Z,100.00
2023-04-23T06:14:14.207Z,100.00
2023-04-23T06:19:16.360Z,100.00
2023-04-23T06:24:18.058Z,100.00
2023-04-23T06:29:21.516Z,100.00
2023-04-23T06:34:23.616Z,100.00
2023-04-23T06:39:25.373Z,100.00
2023-04-23T06:44:29.102Z,100.00
2023-04-23T06:49:31.304Z,100.00
2023-04-23T06:54:32.976Z,100.00
2023-04-23T06:59:36.072Z,100.00
2023-04-23T07:04:37.896Z,100.00
2023-04-23T07:09:40.014Z,100.00
2023-04-23T07:14:43.516Z,100.00
2023-04-23T07:19:45.884Z,100.00
2023-04-23T07:24:47.674Z,100.00
2023-04-23T07:29:51.737Z,100.00
2023-04-23T07:34:53.977Z,100.00
2023-04-23T07:39:56.245Z,100.00
2023-04-23T07:45:00.010Z,100.00
2023-04-23T07:50:01.681Z,100.00
2023-04-23T07:55:04.296Z,100.00
2023-04-23T08:00:09.075Z,100.00
2023-04-23T08:05:11.626Z,100.00
2023-04-23T08:10:13.845Z,100.00
2023-04-23T08:15:17.166Z,100.00
2023-04-23T08:20:19.109Z,100.00
2023-04-23T08:25:21.129Z,97.69
2023-04-23T08:30:24.629Z,99.60
2023-04-23T08:35:26.832Z,100.00
2023-04-23T08:40:31.241Z,100.00
2023-04-23T08:45:36.927Z,100.00
2023-04-23T08:50:42.951Z,100.00
2023-04-23T08:55:46.171Z,99.04
2023-04-23T09:00:49.656Z,100.00
2023-04-23T09:05:51.899Z,100.00
2023-04-23T09:10:57.781Z,100.00
2023-04-23T09:16:01.392Z,99.88
2023-04-23T09:21:04.728Z,98.57
2023-04-23T09:26:07.377Z,98.11
2023-04-23T09:31:11.038Z,98.70
2023-04-23T09:36:15.492Z,97.82
2023-04-23T09:41:20.830Z,97.04
2023-04-23T09:46:39.167Z,98.94
2023-04-23T09:51:42.529Z,96.33
2023-04-23T09:56:48.820Z,96.67
2023-04-23T10:01:53.003Z,96.13
2023-04-23T10:12:00.865Z,89.33
2023-04-23T10:17:04.909Z,85.86
2023-04-23T10:32:30.651Z,86.92
2023-04-23T10:37:33.431Z,88.50
2023-04-23T10:42:35.688Z,92.32
2023-04-23T10:47:38.957Z,95.79
2023-04-23T10:52:43.254Z,90.63
2023-04-23T10:58:02.915Z,88.60
2023-04-23T11:03:26.488Z,88.30
2023-04-23T11:08:29.546Z,90.11
2023-04-23T11:13:31.239Z,91.12
2023-04-23T11:18:55.140Z,91.98
2023-04-23T11:23:57.381Z,88.04
2023-04-23T11:28:59.596Z,83.26
2023-04-23T11:34:03.549Z,77.59
2023-04-23T11:39:05.270Z,71.35
2023-04-23T11:44:07.136Z,70.57
2023-04-23T11:49:10.591Z,64.92
2023-04-23T11:54:13.920Z,57.99
2023-04-23T11:59:15.717Z,54.15
2023-04-23T12:04:21.012Z,56.75
2023-04-23T12:09:24.769Z,59.70
2023-04-23T12:14:28.684Z,60.84
2023-04-23T12:19:31.992Z,59.88
2023-04-23T12:24:46.938Z,63.75
2023-04-23T12:29:49.148Z,62.82
2023-04-23T12:34:56.143Z,60.83
2023-04-23T12:39:58.322Z,61.27
2023-04-23T12:45:06.393Z,55.90
2023-04-23T12:50:11.217Z,56.99
2023-04-23T12:55:13.323Z,59.22
2023-04-23T13:00:15.928Z,60.28
2023-04-23T13:05:18.972Z,62.62
2023-04-23T13:10:20.902Z,62.69
2023-04-23T13:15:22.660Z,60.06
2023-04-23T13:20:26.166Z,60.67
2023-04-23T13:25:28.259Z,64.14
2023-04-23T13:30:30.522Z,65.09
2023-04-23T13:35:33.623Z,59.09
2023-04-23T13:40:36.280Z,59.24
2023-04-23T13:45:38.062Z,58.05
2023-04-23T13:50:41.522Z,56.06
2023-04-23T13:55:43.282Z,57.42
2023-04-23T14:00:45.488Z,55.06
2023-04-23T14:05:49.026Z,58.86
2023-04-23T14:10:51.610Z,56.77
2023-04-23T14:15:53.909Z,51.31
2023-04-23T14:20:57.208Z,50.56
2023-04-23T14:26:04.429Z,49.56
2023-04-23T14:31:07.342Z,49.17
2023-04-23T14:36:10.648Z,52.10
2023-04-23T14:41:12.403Z,50.71
2023-04-23T14:46:14.912Z,46.97
2023-04-23T14:51:18.273Z,46.85
2023-04-23T14:56:20.245Z,46.26
2023-04-23T15:01:22.113Z,49.36
2023-04-23T15:06:25.583Z,48.73
2023-04-23T15:11:27.414Z,48.45
2023-04-23T15:16:40.446Z,45.97
2023-04-23T15:21:51.050Z,44.83
2023-04-23T15:26:53.217Z,43.51
2023-04-23T15:31:55.609Z,48.32
2023-04-23T15:36:59.203Z,50.30
2023-04-23T15:42:00.886Z,49.63
2023-04-23T15:47:03.079Z,49.96
2023-04-23T15:52:06.938Z,50.10
2023-04-23T15:57:08.957Z,53.58
2023-04-23T16:02:11.078Z,54.31
2023-04-23T16:07:14.606Z,52.42
2023-04-23T16:12:16.612Z,50.91
2023-04-23T16:17:18.840Z,51.76
2023-04-23T16:22:22.388Z,50.25
2023-04-23T16:27:24.687Z,48.74
2023-04-23T16:32:26.450Z,50.75
2023-04-23T16:37:29.611Z,51.49
2023-04-23T16:42:31.969Z,50.92
2023-04-23T16:47:34.168Z,54.77
2023-04-23T16:52:37.774Z,57.37
2023-04-23T16:57:39.592Z,57.20
2023-04-23T17:02:42.051Z,58.50
2023-04-23T17:07:45.739Z,58.59
2023-04-23T17:12:47.925Z,57.66
2023-04-23T17:17:49.778Z,56.59
2023-04-23T17:22:53.198Z,55.43
2023-04-23T17:27:54.901Z,54.30
2023-04-23T17:32:56.731Z,53.63
2023-04-23T17:38:00.287Z,54.70
2023-04-23T17:43:02.005Z,55.92
2023-04-23T17:48:04.542Z,56.80
2023-04-23T17:53:08.125Z,59.33
2023-04-23T17:58:09.943Z,60.26
2023-04-23T18:03:11.943Z,64.04
2023-04-23T18:08:15.232Z,63.43
2023-04-23T18:13:17.643Z,65.72
2023-04-23T18:18:20.070Z,69.96
2023-04-23T18:23:23.577Z,70.01
2023-04-23T18:28:25.849Z,71.51
2023-04-23T18:33:31.253Z,74.22
2023-04-23T18:38:42.729Z,75.20
2023-04-23T18:43:44.799Z,77.07
2023-04-23T18:48:51.683Z,77.63
2023-04-23T18:53:55.722Z,76.66
2023-04-23T18:58:57.567Z,77.34
2023-04-23T19:03:59.871Z,79.02
2023-04-23T19:09:03.240Z,79.64
2023-04-23T19:14:05.246Z,82.45
2023-04-23T19:19:07.233Z,82.45
2023-04-23T19:24:10.937Z,82.75
2023-04-23T19:29:13.147Z,81.69
2023-04-23T19:34:15.188Z,82.58
2023-04-23T19:39:18.452Z,85.06
2023-04-23T19:44:20.218Z,86.81
2023-04-23T19:49:22.037Z,86.38
2023-04-23T19:54:25.973Z,86.93
2023-04-23T19:59:27.738Z,87.38
2023-04-23T20:04:29.679Z,88.38
2023-04-23T20:09:33.268Z,88.38
2023-04-23T20:14:35.037Z,89.39
2023-04-23T20:19:37.495Z,90.63
2023-04-23T20:24:40.603Z,89.58
2023-04-23T20:29:42.496Z,89.88
2023-04-23T20:34:44.567Z,89.04
2023-04-23T20:39:47.707Z,89.31
2023-04-23T20:44:49.354Z,88.77
2023-04-23T20:49:51.199Z,88.83
2023-04-23T20:54:54.652Z,90.14
2023-04-23T20:59:56.794Z,91.15
2023-04-23T21:04:58.609Z,91.53
2023-04-23T21:10:01.732Z,91.66
2023-04-23T21:15:04.525Z,91.80
2023-04-23T21:20:07.919Z,91.52
2023-04-23T21:25:11.640Z,91.17
2023-04-23T21:30:20.366Z,90.81
2023-04-23T21:35:22.446Z,91.09
2023-04-23T21:40:26.135Z,92.22
2023-04-23T21:45:28.071Z,93.31
2023-04-23T21:50:30.865Z,93.42
2023-04-23T21:55:34.658Z,94.42
2023-04-23T22:00:37.068Z,94.31
2023-04-23T22:05:38.821Z,95.26
2023-04-23T22:10:41.893Z,96.34
2023-04-23T22:15:43.872Z,95.92
2023-04-23T22:20:45.646Z,96.95
2023-04-23T22:25:49.170Z,97.28
2023-04-23T22:30:50.888Z,97.13
2023-04-23T22:35:52.673Z,96.27
2023-04-23T22:40:55.757Z,95.77
2023-04-23T22:45:57.557Z,94.77
2023-04-23T22:50:59.272Z,95.56
2023-04-23T22:56:02.830Z,95.32
2023-04-23T23:01:04.756Z,95.02
2023-04-23T23:06:06.538Z,95.70
2023-04-23T23:11:10.020Z,95.66
2023-04-23T23:16:12.030Z,96.21
2023-04-23T23:21:14.260Z,97.83
2023-04-23T23:26:18.045Z,97.12
2023-04-23T23:31:20.313Z,98.24
2023-04-23T23:36:22.151Z,98.38
2023-04-23T23:41:26.141Z,98.32
2023-04-23T23:46:27.942Z,99.72
2023-04-23T23:51:29.845Z,99.86
2023-04-23T23:56:33.284Z,100.00
